sensor_id;sensor_type;location;lat;lon;timestamp;temperature;humidity
12632;DHT22;6381;45.748;12.106;2023-04-06T00:00:36;7.80;39.10
12632;DHT22;6381;45.748;12.106;2023-04-06T00:03:05;7.70;39.10
12632;DHT22;6381;45.748;12.106;2023-04-06T00:05:34;7.70;39.10
12632;DHT22;6381;45.748;12.106;2023-04-06T00:08:03;7.40;39.40
12632;DHT22;6381;45.748;12.106;2023-04-06T00:10:32;7.40;39.10
12632;DHT22;6381;45.748;12.106;2023-04-06T00:13:03;7.60;39.00
12632;DHT22;6381;45.748;12.106;2023-04-06T00:15:32;7.70;38.60
12632;DHT22;6381;45.748;12.106;2023-04-06T00:18:01;7.70;38.50
12632;DHT22;6381;45.748;12.106;2023-04-06T00:20:29;7.80;38.40
12632;DHT22;6381;45.748;12.106;2023-04-06T00:22:58;7.70;38.30
12632;DHT22;6381;45.748;12.106;2023-04-06T00:25:27;7.80;38.40
12632;DHT22;6381;45.748;12.106;2023-04-06T00:27:56;7.70;38.00
12632;DHT22;6381;45.748;12.106;2023-04-06T00:30:27;7.60;37.60
12632;DHT22;6381;45.748;12.106;2023-04-06T00:32:56;7.30;37.50
12632;DHT22;6381;45.748;12.106;2023-04-06T00:35:25;7.40;38.20
12632;DHT22;6381;45.748;12.106;2023-04-06T00:37:53;7.50;38.10
12632;DHT22;6381;45.748;12.106;2023-04-06T00:40:22;7.60;37.90
12632;DHT22;6381;45.748;12.106;2023-04-06T00:42:51;7.60;37.90
12632;DHT22;6381;45.748;12.106;2023-04-06T00:45:21;7.70;36.90
12632;DHT22;6381;45.748;12.106;2023-04-06T00:47:51;7.60;36.70
12632;DHT22;6381;45.748;12.106;2023-04-06T00:50:20;7.50;37.10
12632;DHT22;6381;45.748;12.106;2023-04-06T00:52:49;7.50;36.80
12632;DHT22;6381;45.748;12.106;2023-04-06T00:55:24;7.20;36.50
12632;DHT22;6381;45.748;12.106;2023-04-06T00:57:53;7.20;36.80
12632;DHT22;6381;45.748;12.106;2023-04-06T01:00:22;7.30;37.00
12632;DHT22;6381;45.748;12.106;2023-04-06T01:02:57;7.50;37.00
12632;DHT22;6381;45.748;12.106;2023-04-06T01:05:34;7.60;36.70
12632;DHT22;6381;45.748;12.106;2023-04-06T01:08:15;7.60;36.70
12632;DHT22;6381;45.748;12.106;2023-04-06T01:10:45;7.50;36.70
12632;DHT22;6381;45.748;12.106;2023-04-06T01:13:34;7.60;36.80
12632;DHT22;6381;45.748;12.106;2023-04-06T01:16:06;7.60;37.30
12632;DHT22;6381;45.748;12.106;2023-04-06T01:19:07;7.50;36.80
12632;DHT22;6381;45.748;12.106;2023-04-06T01:21:40;7.50;37.30
12632;DHT22;6381;45.748;12.106;2023-04-06T01:24:30;7.50;37.50
12632;DHT22;6381;45.748;12.106;2023-04-06T01:27:17;7.50;37.90
12632;DHT22;6381;45.748;12.106;2023-04-06T01:30:06;7.60;37.70
12632;DHT22;6381;45.748;12.106;2023-04-06T01:32:58;7.60;37.90
12632;DHT22;6381;45.748;12.106;2023-04-06T01:35:46;7.70;38.20
12632;DHT22;6381;45.748;12.106;2023-04-06T01:38:18;7.50;38.30
12632;DHT22;6381;45.748;12.106;2023-04-06T01:40:49;7.40;38.70
12632;DHT22;6381;45.748;12.106;2023-04-06T01:43:21;7.60;38.80
12632;DHT22;6381;45.748;12.106;2023-04-06T01:46:16;7.30;38.60
12632;DHT22;6381;45.748;12.106;2023-04-06T01:48:45;7.40;39.00
12632;DHT22;6381;45.748;12.106;2023-04-06T01:51:34;7.30;39.10
12632;DHT22;6381;45.748;12.106;2023-04-06T01:54:06;7.40;39.00
12632;DHT22;6381;45.748;12.106;2023-04-06T01:56:54;7.40;38.90
12632;DHT22;6381;45.748;12.106;2023-04-06T01:59:31;7.20;39.00
12632;DHT22;6381;45.748;12.106;2023-04-06T02:02:05;7.30;39.00
12632;DHT22;6381;45.748;12.106;2023-04-06T02:04:36;7.30;38.60
12632;DHT22;6381;45.748;12.106;2023-04-06T02:07:12;7.40;38.80
12632;DHT22;6381;45.748;12.106;2023-04-06T02:09:42;7.40;38.60
12632;DHT22;6381;45.748;12.106;2023-04-06T02:12:20;7.50;38.90
12632;DHT22;6381;45.748;12.106;2023-04-06T02:14:49;7.30;38.60
12632;DHT22;6381;45.748;12.106;2023-04-06T02:17:18;7.30;38.70
12632;DHT22;6381;45.748;12.106;2023-04-06T02:19:47;7.30;38.60
12632;DHT22;6381;45.748;12.106;2023-04-06T02:22:16;7.40;38.50
12632;DHT22;6381;45.748;12.106;2023-04-06T02:24:45;7.30;38.50
12632;DHT22;6381;45.748;12.106;2023-04-06T02:27:15;7.30;38.40
12632;DHT22;6381;45.748;12.106;2023-04-06T02:29:48;7.40;38.40
12632;DHT22;6381;45.748;12.106;2023-04-06T02:32:19;7.30;38.30
12632;DHT22;6381;45.748;12.106;2023-04-06T02:34:48;6.90;38.50
12632;DHT22;6381;45.748;12.106;2023-04-06T02:37:20;6.90;39.00
12632;DHT22;6381;45.748;12.106;2023-04-06T02:39:49;6.90;39.20
12632;DHT22;6381;45.748;12.106;2023-04-06T02:42:18;6.90;38.90
12632;DHT22;6381;45.748;12.106;2023-04-06T02:44:52;6.90;38.70
12632;DHT22;6381;45.748;12.106;2023-04-06T02:47:24;6.90;39.00
12632;DHT22;6381;45.748;12.106;2023-04-06T02:49:53;6.90;38.90
12632;DHT22;6381;45.748;12.106;2023-04-06T02:52:22;6.80;39.10
12632;DHT22;6381;45.748;12.106;2023-04-06T02:54:51;6.60;38.60
12632;DHT22;6381;45.748;12.106;2023-04-06T02:57:26;6.80;38.80
12632;DHT22;6381;45.748;12.106;2023-04-06T02:59:56;7.00;38.50
12632;DHT22;6381;45.748;12.106;2023-04-06T03:02:33;7.00;38.20
12632;DHT22;6381;45.748;12.106;2023-04-06T03:05:08;6.90;38.30
12632;DHT22;6381;45.748;12.106;2023-04-06T03:07:41;6.90;38.40
12632;DHT22;6381;45.748;12.106;2023-04-06T03:10:17;6.90;37.90
12632;DHT22;6381;45.748;12.106;2023-04-06T03:12:47;7.10;38.10
12632;DHT22;6381;45.748;12.106;2023-04-06T03:15:22;6.90;38.40
12632;DHT22;6381;45.748;12.106;2023-04-06T03:17:57;6.90;38.10
12632;DHT22;6381;45.748;12.106;2023-04-06T03:20:40;7.00;38.20
12632;DHT22;6381;45.748;12.106;2023-04-06T03:23:10;6.90;37.90
12632;DHT22;6381;45.748;12.106;2023-04-06T03:25:41;6.80;37.80
12632;DHT22;6381;45.748;12.106;2023-04-06T03:28:14;6.90;37.80
12632;DHT22;6381;45.748;12.106;2023-04-06T03:30:58;6.90;38.00
12632;DHT22;6381;45.748;12.106;2023-04-06T03:33:44;7.20;38.20
12632;DHT22;6381;45.748;12.106;2023-04-06T03:36:29;7.10;37.80
12632;DHT22;6381;45.748;12.106;2023-04-06T03:38:59;7.20;37.50
12632;DHT22;6381;45.748;12.106;2023-04-06T03:41:31;7.30;37.40
12632;DHT22;6381;45.748;12.106;2023-04-06T03:44:19;7.10;37.80
12632;DHT22;6381;45.748;12.106;2023-04-06T03:46:49;7.10;37.90
12632;DHT22;6381;45.748;12.106;2023-04-06T03:49:21;7.10;37.90
12632;DHT22;6381;45.748;12.106;2023-04-06T03:51:53;7.30;38.30
12632;DHT22;6381;45.748;12.106;2023-04-06T03:54:22;7.10;38.50
12632;DHT22;6381;45.748;12.106;2023-04-06T03:56:51;7.10;38.20
12632;DHT22;6381;45.748;12.106;2023-04-06T03:59:20;7.10;38.10
12632;DHT22;6381;45.748;12.106;2023-04-06T04:01:54;7.00;37.80
12632;DHT22;6381;45.748;12.106;2023-04-06T04:04:23;7.10;38.20
12632;DHT22;6381;45.748;12.106;2023-04-06T04:06:52;7.00;38.10
12632;DHT22;6381;45.748;12.106;2023-04-06T04:09:21;7.00;38.40
12632;DHT22;6381;45.748;12.106;2023-04-06T04:11:50;7.00;38.50
12632;DHT22;6381;45.748;12.106;2023-04-06T04:14:20;6.90;38.20
12632;DHT22;6381;45.748;12.106;2023-04-06T04:16:50;6.80;38.40
12632;DHT22;6381;45.748;12.106;2023-04-06T04:19:20;6.90;38.80
12632;DHT22;6381;45.748;12.106;2023-04-06T04:21:49;6.90;38.40
12632;DHT22;6381;45.748;12.106;2023-04-06T04:24:26;7.00;38.50
12632;DHT22;6381;45.748;12.106;2023-04-06T04:26:55;6.90;38.60
12632;DHT22;6381;45.748;12.106;2023-04-06T04:29:24;6.60;38.80
12632;DHT22;6381;45.748;12.106;2023-04-06T04:31:54;6.40;39.30
12632;DHT22;6381;45.748;12.106;2023-04-06T04:34:24;6.50;39.20
12632;DHT22;6381;45.748;12.106;2023-04-06T04:36:54;6.40;39.30
12632;DHT22;6381;45.748;12.106;2023-04-06T04:39:34;6.30;39.20
12632;DHT22;6381;45.748;12.106;2023-04-06T04:42:06;6.60;39.40
12632;DHT22;6381;45.748;12.106;2023-04-06T04:44:39;6.60;38.80
12632;DHT22;6381;45.748;12.106;2023-04-06T04:47:09;6.70;38.70
12632;DHT22;6381;45.748;12.106;2023-04-06T04:49:44;6.60;38.40
12632;DHT22;6381;45.748;12.106;2023-04-06T04:52:20;6.70;38.70
12632;DHT22;6381;45.748;12.106;2023-04-06T04:55:09;6.60;38.90
12632;DHT22;6381;45.748;12.106;2023-04-06T04:57:38;6.60;39.10
12632;DHT22;6381;45.748;12.106;2023-04-06T05:00:08;6.70;38.80
12632;DHT22;6381;45.748;12.106;2023-04-06T05:02:41;6.80;38.80
12632;DHT22;6381;45.748;12.106;2023-04-06T05:05:27;6.90;38.50
12632;DHT22;6381;45.748;12.106;2023-04-06T05:07:57;6.80;38.20
12632;DHT22;6381;45.748;12.106;2023-04-06T05:10:37;6.80;38.40
12632;DHT22;6381;45.748;12.106;2023-04-06T05:13:06;6.80;38.20
12632;DHT22;6381;45.748;12.106;2023-04-06T05:15:35;6.80;38.50
12632;DHT22;6381;45.748;12.106;2023-04-06T05:18:13;6.80;38.40
12632;DHT22;6381;45.748;12.106;2023-04-06T05:20:44;7.00;38.30
12632;DHT22;6381;45.748;12.106;2023-04-06T05:23:13;6.90;38.40
12632;DHT22;6381;45.748;12.106;2023-04-06T05:25:43;6.80;38.80
12632;DHT22;6381;45.748;12.106;2023-04-06T05:28:18;6.80;38.40
12632;DHT22;6381;45.748;12.106;2023-04-06T05:30:46;6.80;38.70
12632;DHT22;6381;45.748;12.106;2023-04-06T05:33:16;6.90;38.80
12632;DHT22;6381;45.748;12.106;2023-04-06T05:36:02;6.90;38.90
12632;DHT22;6381;45.748;12.106;2023-04-06T05:38:34;6.90;39.20
12632;DHT22;6381;45.748;12.106;2023-04-06T05:41:12;6.90;39.20
12632;DHT22;6381;45.748;12.106;2023-04-06T05:43:42;7.20;38.90
12632;DHT22;6381;45.748;12.106;2023-04-06T05:46:11;7.40;38.90
12632;DHT22;6381;45.748;12.106;2023-04-06T05:48:40;7.30;38.60
12632;DHT22;6381;45.748;12.106;2023-04-06T05:51:13;7.60;38.60
12632;DHT22;6381;45.748;12.106;2023-04-06T05:53:47;7.70;38.40
12632;DHT22;6381;45.748;12.106;2023-04-06T05:56:15;7.70;37.50
12632;DHT22;6381;45.748;12.106;2023-04-06T05:58:45;7.60;38.30
12632;DHT22;6381;45.748;12.106;2023-04-06T06:01:20;7.90;37.90
12632;DHT22;6381;45.748;12.106;2023-04-06T06:03:49;8.00;37.60
12632;DHT22;6381;45.748;12.106;2023-04-06T06:06:20;8.20;37.60
12632;DHT22;6381;45.748;12.106;2023-04-06T06:09:25;8.10;36.90
12632;DHT22;6381;45.748;12.106;2023-04-06T06:12:06;8.30;37.00
12632;DHT22;6381;45.748;12.106;2023-04-06T06:14:35;8.40;37.00
12632;DHT22;6381;45.748;12.106;2023-04-06T06:17:04;8.20;37.10
12632;DHT22;6381;45.748;12.106;2023-04-06T06:19:33;8.30;36.80
12632;DHT22;6381;45.748;12.106;2023-04-06T06:22:07;8.40;36.60
12632;DHT22;6381;45.748;12.106;2023-04-06T06:24:40;8.40;36.50
12632;DHT22;6381;45.748;12.106;2023-04-06T06:27:10;8.20;36.50
12632;DHT22;6381;45.748;12.106;2023-04-06T06:29:39;8.20;36.40
12632;DHT22;6381;45.748;12.106;2023-04-06T06:32:08;8.20;36.10
12632;DHT22;6381;45.748;12.106;2023-04-06T06:34:39;8.00;35.90
12632;DHT22;6381;45.748;12.106;2023-04-06T06:37:11;8.10;36.10
12632;DHT22;6381;45.748;12.106;2023-04-06T06:39:40;8.40;35.90
12632;DHT22;6381;45.748;12.106;2023-04-06T06:42:09;8.50;35.40
12632;DHT22;6381;45.748;12.106;2023-04-06T06:44:51;8.50;35.80
12632;DHT22;6381;45.748;12.106;2023-04-06T06:47:20;8.30;36.00
12632;DHT22;6381;45.748;12.106;2023-04-06T06:49:49;8.40;36.10
12632;DHT22;6381;45.748;12.106;2023-04-06T06:52:19;8.50;35.30
12632;DHT22;6381;45.748;12.106;2023-04-06T06:54:50;8.70;35.00
12632;DHT22;6381;45.748;12.106;2023-04-06T06:57:22;8.70;35.20
12632;DHT22;6381;45.748;12.106;2023-04-06T06:59:51;8.80;35.00
12632;DHT22;6381;45.748;12.106;2023-04-06T07:02:21;8.80;34.70
12632;DHT22;6381;45.748;12.106;2023-04-06T07:04:50;8.90;34.80
12632;DHT22;6381;45.748;12.106;2023-04-06T07:07:20;8.80;34.60
12632;DHT22;6381;45.748;12.106;2023-04-06T07:09:49;9.10;34.80
12632;DHT22;6381;45.748;12.106;2023-04-06T07:12:18;8.90;34.20
12632;DHT22;6381;45.748;12.106;2023-04-06T07:14:47;12.10;36.50
12632;DHT22;6381;45.748;12.106;2023-04-06T07:17:16;9.10;34.50
12632;DHT22;6381;45.748;12.106;2023-04-06T07:19:45;9.20;34.50
12632;DHT22;6381;45.748;12.106;2023-04-06T07:22:14;9.40;34.00
12632;DHT22;6381;45.748;12.106;2023-04-06T07:24:44;9.40;34.10
12632;DHT22;6381;45.748;12.106;2023-04-06T07:27:13;9.40;34.00
12632;DHT22;6381;45.748;12.106;2023-04-06T07:29:43;9.40;34.60
12632;DHT22;6381;45.748;12.106;2023-04-06T07:32:12;9.40;34.50
12632;DHT22;6381;45.748;12.106;2023-04-06T07:34:41;9.40;34.80
12632;DHT22;6381;45.748;12.106;2023-04-06T07:37:12;9.50;34.20
12632;DHT22;6381;45.748;12.106;2023-04-06T07:39:44;9.40;34.70
12632;DHT22;6381;45.748;12.106;2023-04-06T07:42:13;9.60;34.40
12632;DHT22;6381;45.748;12.106;2023-04-06T07:44:43;9.40;34.80
12632;DHT22;6381;45.748;12.106;2023-04-06T07:47:12;9.50;34.20
12632;DHT22;6381;45.748;12.106;2023-04-06T07:49:41;9.50;34.10
12632;DHT22;6381;45.748;12.106;2023-04-06T07:52:10;9.70;33.60
12632;DHT22;6381;45.748;12.106;2023-04-06T07:54:41;10.00;33.80
12632;DHT22;6381;45.748;12.106;2023-04-06T07:57:11;9.90;34.10
12632;DHT22;6381;45.748;12.106;2023-04-06T07:59:40;10.00;34.00
12632;DHT22;6381;45.748;12.106;2023-04-06T08:02:09;10.20;33.70
12632;DHT22;6381;45.748;12.106;2023-04-06T08:04:38;10.20;33.00
12632;DHT22;6381;45.748;12.106;2023-04-06T08:07:06;10.10;32.80
12632;DHT22;6381;45.748;12.106;2023-04-06T08:09:35;10.10;32.40
12632;DHT22;6381;45.748;12.106;2023-04-06T08:12:05;10.20;32.40
12632;DHT22;6381;45.748;12.106;2023-04-06T08:14:36;10.30;30.00
12632;DHT22;6381;45.748;12.106;2023-04-06T08:17:05;10.30;29.80
12632;DHT22;6381;45.748;12.106;2023-04-06T08:19:34;10.40;30.30
12632;DHT22;6381;45.748;12.106;2023-04-06T08:22:03;10.60;30.50
12632;DHT22;6381;45.748;12.106;2023-04-06T08:24:31;10.20;29.70
12632;DHT22;6381;45.748;12.106;2023-04-06T08:27:01;10.50;30.60
12632;DHT22;6381;45.748;12.106;2023-04-06T08:29:30;10.70;31.00
12632;DHT22;6381;45.748;12.106;2023-04-06T08:32:00;10.60;30.50
12632;DHT22;6381;45.748;12.106;2023-04-06T08:34:32;10.40;29.90
12632;DHT22;6381;45.748;12.106;2023-04-06T08:37:01;10.30;29.50
12632;DHT22;6381;45.748;12.106;2023-04-06T08:39:30;10.70;30.10
12632;DHT22;6381;45.748;12.106;2023-04-06T08:42:01;11.00;29.90
12632;DHT22;6381;45.748;12.106;2023-04-06T08:44:31;11.30;30.00
12632;DHT22;6381;45.748;12.106;2023-04-06T08:47:04;11.40;29.80
12632;DHT22;6381;45.748;12.106;2023-04-06T08:49:35;11.30;29.20
12632;DHT22;6381;45.748;12.106;2023-04-06T08:52:07;11.30;28.80
12632;DHT22;6381;45.748;12.106;2023-04-06T08:54:36;11.40;29.00
12632;DHT22;6381;45.748;12.106;2023-04-06T08:57:06;11.20;28.10
12632;DHT22;6381;45.748;12.106;2023-04-06T08:59:35;10.70;28.00
12632;DHT22;6381;45.748;12.106;2023-04-06T09:02:06;10.90;28.70
12632;DHT22;6381;45.748;12.106;2023-04-06T09:04:41;10.50;28.50
12632;DHT22;6381;45.748;12.106;2023-04-06T09:07:10;10.40;28.90
12632;DHT22;6381;45.748;12.106;2023-04-06T09:09:39;10.50;28.70
12632;DHT22;6381;45.748;12.106;2023-04-06T09:12:23;10.90;29.30
12632;DHT22;6381;45.748;12.106;2023-04-06T09:14:52;11.20;30.00
12632;DHT22;6381;45.748;12.106;2023-04-06T09:17:23;11.30;29.30
12632;DHT22;6381;45.748;12.106;2023-04-06T09:19:52;11.80;29.60
12632;DHT22;6381;45.748;12.106;2023-04-06T09:22:21;11.60;28.90
12632;DHT22;6381;45.748;12.106;2023-04-06T09:24:53;11.60;29.30
12632;DHT22;6381;45.748;12.106;2023-04-06T09:27:31;11.70;28.00
12632;DHT22;6381;45.748;12.106;2023-04-06T09:30:05;11.00;28.20
12632;DHT22;6381;45.748;12.106;2023-04-06T09:32:46;10.80;28.60
12632;DHT22;6381;45.748;12.106;2023-04-06T09:35:16;10.90;28.40
12632;DHT22;6381;45.748;12.106;2023-04-06T09:37:47;11.50;28.90
12632;DHT22;6381;45.748;12.106;2023-04-06T09:40:17;11.30;28.50
12632;DHT22;6381;45.748;12.106;2023-04-06T09:42:47;11.10;28.70
12632;DHT22;6381;45.748;12.106;2023-04-06T09:45:17;11.40;28.80
12632;DHT22;6381;45.748;12.106;2023-04-06T09:47:48;11.90;29.20
12632;DHT22;6381;45.748;12.106;2023-04-06T09:50:21;12.20;27.90
12632;DHT22;6381;45.748;12.106;2023-04-06T09:52:51;12.10;28.20
12632;DHT22;6381;45.748;12.106;2023-04-06T09:55:28;11.90;27.80
12632;DHT22;6381;45.748;12.106;2023-04-06T09:58:04;12.50;28.00
12632;DHT22;6381;45.748;12.106;2023-04-06T10:10:46;12.80;28.00
12632;DHT22;6381;45.748;12.106;2023-04-06T10:13:16;12.00;27.20
12632;DHT22;6381;45.748;12.106;2023-04-06T10:15:45;12.20;26.70
12632;DHT22;6381;45.748;12.106;2023-04-06T10:18:16;12.10;27.00
12632;DHT22;6381;45.748;12.106;2023-04-06T10:20:50;12.20;27.60
12632;DHT22;6381;45.748;12.106;2023-04-06T10:23:26;12.40;27.30
12632;DHT22;6381;45.748;12.106;2023-04-06T10:25:59;12.20;27.20
12632;DHT22;6381;45.748;12.106;2023-04-06T10:28:31;11.60;27.70
12632;DHT22;6381;45.748;12.106;2023-04-06T10:31:05;11.80;27.30
12632;DHT22;6381;45.748;12.106;2023-04-06T10:33:35;11.90;27.30
12632;DHT22;6381;45.748;12.106;2023-04-06T10:36:11;12.30;28.70
12632;DHT22;6381;45.748;12.106;2023-04-06T10:38:41;12.70;28.70
12632;DHT22;6381;45.748;12.106;2023-04-06T10:41:11;12.70;27.60
12632;DHT22;6381;45.748;12.106;2023-04-06T10:43:41;12.30;27.60
12632;DHT22;6381;45.748;12.106;2023-04-06T10:46:11;12.20;27.90
12632;DHT22;6381;45.748;12.106;2023-04-06T10:48:43;12.10;27.80
12632;DHT22;6381;45.748;12.106;2023-04-06T10:51:15;12.80;28.20
12632;DHT22;6381;45.748;12.106;2023-04-06T10:53:45;12.50;27.80
12632;DHT22;6381;45.748;12.106;2023-04-06T10:56:16;13.40;28.00
12632;DHT22;6381;45.748;12.106;2023-04-06T10:58:46;13.70;27.30
12632;DHT22;6381;45.748;12.106;2023-04-06T11:01:16;13.40;27.10
12632;DHT22;6381;45.748;12.106;2023-04-06T11:03:47;12.70;27.30
12632;DHT22;6381;45.748;12.106;2023-04-06T11:06:19;12.70;27.40
12632;DHT22;6381;45.748;12.106;2023-04-06T11:08:49;13.10;27.50
12632;DHT22;6381;45.748;12.106;2023-04-06T11:11:19;13.00;27.70
12632;DHT22;6381;45.748;12.106;2023-04-06T11:13:51;13.00;28.40
12632;DHT22;6381;45.748;12.106;2023-04-06T11:16:21;14.00;27.80
12632;DHT22;6381;45.748;12.106;2023-04-06T11:18:53;14.10;27.30
12632;DHT22;6381;45.748;12.106;2023-04-06T11:21:34;12.90;27.20
12632;DHT22;6381;45.748;12.106;2023-04-06T11:24:08;12.90;28.20
12632;DHT22;6381;45.748;12.106;2023-04-06T11:26:38;13.30;28.20
12632;DHT22;6381;45.748;12.106;2023-04-06T11:29:07;13.20;27.60
12632;DHT22;6381;45.748;12.106;2023-04-06T11:31:41;13.10;28.60
12632;DHT22;6381;45.748;12.106;2023-04-06T11:34:12;13.50;27.70
12632;DHT22;6381;45.748;12.106;2023-04-06T11:36:43;14.00;29.00
12632;DHT22;6381;45.748;12.106;2023-04-06T11:39:13;15.30;29.00
12632;DHT22;6381;45.748;12.106;2023-04-06T11:41:47;15.40;27.30
12632;DHT22;6381;45.748;12.106;2023-04-06T11:44:28;15.10;27.50
12632;DHT22;6381;45.748;12.106;2023-04-06T11:46:58;14.10;27.90
12632;DHT22;6381;45.748;12.106;2023-04-06T11:49:29;14.40;27.60
12632;DHT22;6381;45.748;12.106;2023-04-06T11:51:59;15.10;27.80
12632;DHT22;6381;45.748;12.106;2023-04-06T11:54:33;14.40;27.60
12632;DHT22;6381;45.748;12.106;2023-04-06T11:57:03;14.80;28.00
12632;DHT22;6381;45.748;12.106;2023-04-06T11:59:32;15.30;27.30
12632;DHT22;6381;45.748;12.106;2023-04-06T12:02:01;15.90;26.40
12632;DHT22;6381;45.748;12.106;2023-04-06T12:04:32;16.30;26.80
12632;DHT22;6381;45.748;12.106;2023-04-06T12:07:02;15.30;26.70
12632;DHT22;6381;45.748;12.106;2023-04-06T12:09:31;14.70;27.00
12632;DHT22;6381;45.748;12.106;2023-04-06T12:12:01;14.90;27.60
12632;DHT22;6381;45.748;12.106;2023-04-06T12:14:30;16.10;27.90
12632;DHT22;6381;45.748;12.106;2023-04-06T12:17:00;16.90;26.60
12632;DHT22;6381;45.748;12.106;2023-04-06T12:19:30;15.90;26.60
12632;DHT22;6381;45.748;12.106;2023-04-06T12:22:00;16.10;26.60
12632;DHT22;6381;45.748;12.106;2023-04-06T12:24:29;15.30;26.40
12632;DHT22;6381;45.748;12.106;2023-04-06T12:26:58;16.00;27.50
12632;DHT22;6381;45.748;12.106;2023-04-06T12:29:36;15.80;27.10
12632;DHT22;6381;45.748;12.106;2023-04-06T12:32:05;15.50;26.80
12632;DHT22;6381;45.748;12.106;2023-04-06T12:34:36;15.90;27.20
12632;DHT22;6381;45.748;12.106;2023-04-06T12:37:04;17.30;26.60
12632;DHT22;6381;45.748;12.106;2023-04-06T12:39:33;17.80;26.10
12632;DHT22;6381;45.748;12.106;2023-04-06T12:42:02;17.40;26.20
12632;DHT22;6381;45.748;12.106;2023-04-06T12:44:32;16.50;25.90
12632;DHT22;6381;45.748;12.106;2023-04-06T12:47:00;16.30;27.00
12632;DHT22;6381;45.748;12.106;2023-04-06T12:49:30;17.40;25.90
12632;DHT22;6381;45.748;12.106;2023-04-06T12:52:00;15.90;25.60
12632;DHT22;6381;45.748;12.106;2023-04-06T12:54:30;16.20;25.30
12632;DHT22;6381;45.748;12.106;2023-04-06T12:56:59;16.90;25.50
12632;DHT22;6381;45.748;12.106;2023-04-06T12:59:28;16.40;25.60
12632;DHT22;6381;45.748;12.106;2023-04-06T13:02:03;16.30;26.10
12632;DHT22;6381;45.748;12.106;2023-04-06T13:04:32;16.70;25.90
12632;DHT22;6381;45.748;12.106;2023-04-06T13:07:03;17.10;26.00
12632;DHT22;6381;45.748;12.106;2023-04-06T13:09:32;17.80;25.80
12632;DHT22;6381;45.748;12.106;2023-04-06T13:12:01;17.00;24.70
12632;DHT22;6381;45.748;12.106;2023-04-06T13:14:30;15.90;25.50
12632;DHT22;6381;45.748;12.106;2023-04-06T13:16:59;16.60;25.40
12632;DHT22;6381;45.748;12.106;2023-04-06T13:19:28;16.70;25.10
12632;DHT22;6381;45.748;12.106;2023-04-06T13:21:58;16.90;25.50
12632;DHT22;6381;45.748;12.106;2023-04-06T13:24:28;17.10;25.60
12632;DHT22;6381;45.748;12.106;2023-04-06T13:26:57;15.90;25.70
12632;DHT22;6381;45.748;12.106;2023-04-06T13:29:28;16.40;25.40
12632;DHT22;6381;45.748;12.106;2023-04-06T13:31:56;16.60;25.40
12632;DHT22;6381;45.748;12.106;2023-04-06T13:34:26;17.30;25.00
12632;DHT22;6381;45.748;12.106;2023-04-06T13:36:54;17.60;25.00
12632;DHT22;6381;45.748;12.106;2023-04-06T13:39:23;18.00;25.40
12632;DHT22;6381;45.748;12.106;2023-04-06T13:41:55;18.50;24.90
12632;DHT22;6381;45.748;12.106;2023-04-06T13:44:24;17.70;24.60
12632;DHT22;6381;45.748;12.106;2023-04-06T13:46:53;17.10;25.70
12632;DHT22;6381;45.748;12.106;2023-04-06T13:49:22;17.40;25.00
12632;DHT22;6381;45.748;12.106;2023-04-06T13:51:51;17.10;24.50
12632;DHT22;6381;45.748;12.106;2023-04-06T13:54:20;17.90;24.40
12632;DHT22;6381;45.748;12.106;2023-04-06T13:56:49;18.80;24.50
12632;DHT22;6381;45.748;12.106;2023-04-06T13:59:19;17.10;24.60
12632;DHT22;6381;45.748;12.106;2023-04-06T14:01:48;17.50;24.80
12632;DHT22;6381;45.748;12.106;2023-04-06T14:04:17;18.40;25.10
12632;DHT22;6381;45.748;12.106;2023-04-06T14:06:46;18.90;24.20
12632;DHT22;6381;45.748;12.106;2023-04-06T14:09:15;18.20;24.10
12632;DHT22;6381;45.748;12.106;2023-04-06T14:11:44;17.70;24.30
12632;DHT22;6381;45.748;12.106;2023-04-06T14:14:13;16.60;24.50
12632;DHT22;6381;45.748;12.106;2023-04-06T14:16:43;17.10;24.70
12632;DHT22;6381;45.748;12.106;2023-04-06T14:19:13;18.00;24.80
12632;DHT22;6381;45.748;12.106;2023-04-06T14:21:42;18.60;24.20
12632;DHT22;6381;45.748;12.106;2023-04-06T14:24:11;17.90;24.00
12632;DHT22;6381;45.748;12.106;2023-04-06T14:26:41;18.40;24.00
12632;DHT22;6381;45.748;12.106;2023-04-06T14:29:10;18.00;23.90
12632;DHT22;6381;45.748;12.106;2023-04-06T14:31:39;17.20;24.20
12632;DHT22;6381;45.748;12.106;2023-04-06T14:34:09;17.00;24.80
12632;DHT22;6381;45.748;12.106;2023-04-06T14:36:38;17.00;25.20
12632;DHT22;6381;45.748;12.106;2023-04-06T14:39:07;17.20;25.10
12632;DHT22;6381;45.748;12.106;2023-04-06T14:41:37;18.20;24.40
12632;DHT22;6381;45.748;12.106;2023-04-06T14:44:05;17.40;24.00
12632;DHT22;6381;45.748;12.106;2023-04-06T14:46:34;17.60;23.70
12632;DHT22;6381;45.748;12.106;2023-04-06T14:49:03;18.20;23.90
12632;DHT22;6381;45.748;12.106;2023-04-06T14:51:33;18.00;23.20
12632;DHT22;6381;45.748;12.106;2023-04-06T14:54:02;17.20;23.20
12632;DHT22;6381;45.748;12.106;2023-04-06T14:56:31;17.30;24.10
12632;DHT22;6381;45.748;12.106;2023-04-06T14:59:00;17.40;23.40
12632;DHT22;6381;45.748;12.106;2023-04-06T15:01:34;17.30;23.60
12632;DHT22;6381;45.748;12.106;2023-04-06T15:04:03;17.90;23.40
12632;DHT22;6381;45.748;12.106;2023-04-06T15:06:34;17.70;24.30
12632;DHT22;6381;45.748;12.106;2023-04-06T15:09:03;18.30;23.50
12632;DHT22;6381;45.748;12.106;2023-04-06T15:11:32;18.30;23.00
12632;DHT22;6381;45.748;12.106;2023-04-06T15:14:01;17.30;23.30
12632;DHT22;6381;45.748;12.106;2023-04-06T15:16:29;17.30;23.60
12632;DHT22;6381;45.748;12.106;2023-04-06T15:19:00;17.30;23.60
12632;DHT22;6381;45.748;12.106;2023-04-06T15:21:29;17.70;23.30
12632;DHT22;6381;45.748;12.106;2023-04-06T15:23:59;18.40;22.70
12632;DHT22;6381;45.748;12.106;2023-04-06T15:26:29;18.70;22.70
12632;DHT22;6381;45.748;12.106;2023-04-06T15:28:59;18.70;22.80
12632;DHT22;6381;45.748;12.106;2023-04-06T15:31:28;17.90;22.60
12632;DHT22;6381;45.748;12.106;2023-04-06T15:34:05;18.50;22.70
12632;DHT22;6381;45.748;12.106;2023-04-06T15:36:36;18.40;22.60
12632;DHT22;6381;45.748;12.106;2023-04-06T15:39:06;17.70;22.80
12632;DHT22;6381;45.748;12.106;2023-04-06T15:41:36;18.00;23.30
12632;DHT22;6381;45.748;12.106;2023-04-06T15:44:05;17.80;23.40
12632;DHT22;6381;45.748;12.106;2023-04-06T15:46:33;18.70;23.40
12632;DHT22;6381;45.748;12.106;2023-04-06T15:49:02;18.80;23.20
12632;DHT22;6381;45.748;12.106;2023-04-06T15:51:31;19.80;22.80
12632;DHT22;6381;45.748;12.106;2023-04-06T15:54:00;18.70;22.80
12632;DHT22;6381;45.748;12.106;2023-04-06T15:56:31;18.10;22.70
12632;DHT22;6381;45.748;12.106;2023-04-06T15:59:00;17.70;23.10
12632;DHT22;6381;45.748;12.106;2023-04-06T16:01:30;18.50;22.70
12632;DHT22;6381;45.748;12.106;2023-04-06T16:03:59;19.00;22.40
12632;DHT22;6381;45.748;12.106;2023-04-06T16:06:28;18.20;22.40
12632;DHT22;6381;45.748;12.106;2023-04-06T16:08:59;17.40;23.20
12632;DHT22;6381;45.748;12.106;2023-04-06T16:11:31;17.70;24.00
12632;DHT22;6381;45.748;12.106;2023-04-06T16:14:01;18.50;23.80